Terminal Aerodrome Forecast
Issued by NWS Blacksburg, VA

Current Version | Previous Version | Graphics & Text | Print | Product List | Glossary On
Versions: 1 2 3 4 5 6 7 8 9 10 11 12 13 14 15 16 17 18 19 20 21 22 23 24 25 26 27 28 29 30 31 32 33 34 35 36 37 38 39 40
000
FTUS41 KRNK 170523
TAFBLF
TAF
KBLF 170523Z 1706/1806 17010KT P6SM BKN010 OVC050
      TEMPO 1708/1712 5SM BR SCT005 OVC025
     FM171400 26007KT P6SM BKN015
     FM171800 29007KT P6SM SCT030
     FM172100 30005KT P6SM BKN040=

USA.gov is the U.S. government's official web portal to all federal, state and local government web resources and services.